Time;durP1;ratioP1;P1;durP2;ratioP2;P2;SDS_P1;SDS_P2;PMS_P1;PMS_P2;Temp;Humidity;BMP_temperature;BMP_pressure;BME280_temperature;BME280_humidity;BME280_pressure;Samples;Min_cycle;Max_cycle;Signal;HPM_P1;HPM_P2
2021/06/30 00:01:31;;;;;;;32.08;10.00;;;;;;;;;;4991420;28;20123;-55
2021/06/30 00:03:59;;;;;;;28.63;10.52;;;;;;;;;;4988605;28;20041;-55
2021/06/30 00:06:29;;;;;;;23.60;9.38;;;;;;;;;;4967399;28;20061;-55
2021/06/30 00:08:57;;;;;;;35.75;10.02;;;;;;;;;;4988979;28;20037;-54
2021/06/30 00:11:27;;;;;;;24.85;9.48;;;;;;;;;;4975999;28;20120;-54
2021/06/30 00:13:56;;;;;;;25.83;9.27;;;;;;;;;;4989061;28;20151;-53
2021/06/30 00:16:30;;;;;;;33.53;9.93;;;;;;;;;;4970613;28;22080;-55
2021/06/30 00:18:56;;;;;;;24.80;9.35;;;;;;;;;;4987717;28;20069;-54
2021/06/30 00:21:26;;;;;;;24.95;9.63;;;;;;;;;;4987764;28;20041;-54
2021/06/30 00:23:55;;;;;;;25.27;8.85;;;;;;;;;;4989084;28;20034;-55
2021/06/30 00:26:20;;;;;;;28.27;9.77;;;;;;;;;;4988360;28;20568;-53
2021/06/30 00:28:46;;;;;;;26.75;10.60;;;;;;;;;;4989063;28;20037;-54
2021/06/30 00:31:18;;;;;;;33.42;10.85;;;;;;;;;;4990590;28;20900;-54
2021/06/30 00:33:44;;;;;;;41.17;10.98;;;;;;;;;;4989233;28;20525;-55
2021/06/30 00:36:10;;;;;;;36.28;11.23;;;;;;;;;;4983803;28;20057;-55
2021/06/30 00:38:35;;;;;;;38.38;11.88;;;;;;;;;;4971436;28;20121;-53
2021/06/30 00:41:04;;;;;;;38.45;12.68;;;;;;;;;;4974368;28;20036;-55
2021/06/30 00:43:29;;;;;;;31.65;11.82;;;;;;;;;;4991014;28;20205;-54
2021/06/30 00:45:57;;;;;;;37.13;12.35;;;;;;;;;;4974516;28;20029;-56
2021/06/30 00:48:25;;;;;;;41.60;11.75;;;;;;;;;;4988229;28;20041;-56
2021/06/30 00:50:54;;;;;;;33.42;10.75;;;;;;;;;;4987795;28;20025;-56
2021/06/30 00:53:22;;;;;;;28.83;10.70;;;;;;;;;;4977580;28;20034;-56
2021/06/30 00:55:49;;;;;;;33.45;9.80;;;;;;;;;;4975431;28;20038;-57
2021/06/30 00:58:17;;;;;;;31.73;10.70;;;;;;;;;;4973727;28;20720;-56
2021/06/30 01:00:47;;;;;;;25.25;9.82;;;;;;;;;;4989143;28;20144;-56
2021/06/30 01:03:15;;;;;;;37.13;10.52;;;;;;;;;;4971676;28;20026;-58
2021/06/30 01:05:43;;;;;;;31.40;10.18;;;;;;;;;;4991106;28;20424;-57
2021/06/30 01:08:08;;;;;;;33.40;9.77;;;;;;;;;;4974223;28;20034;-58
2021/06/30 01:10:34;;;;;;;30.05;9.20;;;;;;;;;;4987198;28;20160;-57
2021/06/30 01:13:02;;;;;;;22.92;8.68;;;;;;;;;;4971448;28;20144;-56
2021/06/30 01:15:28;;;;;;;26.23;9.13;;;;;;;;;;4986981;28;20493;-57
2021/06/30 01:17:54;;;;;;;22.40;8.60;;;;;;;;;;4988161;28;20049;-57
2021/06/30 01:20:22;;;;;;;31.20;8.65;;;;;;;;;;4988424;28;20041;-58
2021/06/30 01:23:09;;;;;;;17.38;8.32;;;;;;;;;;4981400;28;20030;-58
2021/06/30 01:25:37;;;;;;;28.80;7.43;;;;;;;;;;4988314;28;20029;-58
2021/06/30 01:28:03;;;;;;;24.83;7.45;;;;;;;;;;4989638;28;20163;-57
2021/06/30 01:30:33;;;;;;;24.83;8.48;;;;;;;;;;4988299;28;20025;-59
2021/06/30 01:33:03;;;;;;;21.20;7.97;;;;;;;;;;4987339;28;20037;-57
2021/06/30 01:35:31;;;;;;;18.67;7.85;;;;;;;;;;4988494;28;20030;-58
2021/06/30 01:37:57;;;;;;;25.83;9.15;;;;;;;;;;4988630;28;20042;-57
2021/06/30 01:40:24;;;;;;;29.35;8.55;;;;;;;;;;4973787;28;20379;-58
2021/06/30 01:42:55;;;;;;;20.35;8.18;;;;;;;;;;4986422;28;20049;-57
2021/06/30 01:45:22;;;;;;;19.40;8.70;;;;;;;;;;4951088;28;20038;-58
2021/06/30 01:47:47;;;;;;;16.45;7.85;;;;;;;;;;4987928;28;20038;-59
2021/06/30 01:50:13;;;;;;;26.95;8.93;;;;;;;;;;4987864;28;20095;-57
2021/06/30 01:52:41;;;;;;;21.17;9.10;;;;;;;;;;4981817;28;20148;-58
2021/06/30 01:55:09;;;;;;;36.05;10.23;;;;;;;;;;4988431;28;20122;-58
2021/06/30 01:57:43;;;;;;;20.90;9.20;;;;;;;;;;4955600;28;20030;-58
2021/06/30 02:00:10;;;;;;;22.40;9.10;;;;;;;;;;4974071;28;20052;-59
2021/06/30 02:02:36;;;;;;;25.52;9.32;;;;;;;;;;4983977;28;20034;-58
2021/06/30 02:05:11;;;;;;;30.92;9.35;;;;;;;;;;4987939;28;20029;-57
2021/06/30 02:07:38;;;;;;;21.67;8.88;;;;;;;;;;4987298;28;20061;-56
2021/06/30 02:10:10;;;;;;;24.60;10.98;;;;;;;;;;4965828;28;20029;-55
2021/06/30 02:12:37;;;;;;;26.77;10.25;;;;;;;;;;4970637;28;20037;-55
2021/06/30 02:15:06;;;;;;;31.00;10.98;;;;;;;;;;4987637;28;20032;-57
2021/06/30 02:17:33;;;;;;;29.85;10.05;;;;;;;;;;4987810;28;20038;-57
2021/06/30 02:20:02;;;;;;;21.90;9.45;;;;;;;;;;4969730;28;20129;-57
2021/06/30 02:22:30;;;;;;;26.92;9.55;;;;;;;;;;4987328;28;20912;-57
2021/06/30 02:24:58;;;;;;;36.63;10.35;;;;;;;;;;4988525;28;20052;-58
2021/06/30 02:27:23;;;;;;;23.90;9.75;;;;;;;;;;4988661;28;20033;-59
2021/06/30 02:29:52;;;;;;;28.23;10.32;;;;;;;;;;4989148;28;20042;-63
2021/06/30 02:32:18;;;;;;;27.20;10.05;;;;;;;;;;4989227;28;20084;-60
2021/06/30 02:34:46;;;;;;;23.23;9.82;;;;;;;;;;4982347;28;20046;-59
2021/06/30 02:37:13;;;;;;;25.40;9.40;;;;;;;;;;4986628;28;20046;-59
2021/06/30 02:39:39;;;;;;;18.60;8.13;;;;;;;;;;4989977;28;20041;-59
2021/06/30 02:42:07;;;;;;;22.85;9.63;;;;;;;;;;4990064;28;20062;-58
2021/06/30 02:44:37;;;;;;;33.70;9.43;;;;;;;;;;4974647;28;20029;-58
2021/06/30 02:47:03;;;;;;;21.88;9.25;;;;;;;;;;4984773;28;21981;-58
2021/06/30 02:49:31;;;;;;;27.73;10.02;;;;;;;;;;4975096;28;20033;-58
2021/06/30 02:52:03;;;;;;;23.75;9.23;;;;;;;;;;4982323;28;20484;-57
2021/06/30 02:54:29;;;;;;;24.40;8.80;;;;;;;;;;4989851;28;20033;-57
2021/06/30 02:56:58;;;;;;;24.33;8.77;;;;;;;;;;4974258;28;20029;-58
2021/06/30 02:59:29;;;;;;;23.15;8.77;;;;;;;;;;4989794;28;20316;-58
2021/06/30 03:01:57;;;;;;;24.95;10.20;;;;;;;;;;4987594;28;20819;-58
2021/06/30 03:04:22;;;;;;;32.38;10.18;;;;;;;;;;4952952;28;20124;-57
2021/06/30 03:06:51;;;;;;;24.92;9.30;;;;;;;;;;4975529;28;20033;-59
2021/06/30 03:09:22;;;;;;;21.95;7.97;;;;;;;;;;4991087;28;20442;-58
2021/06/30 03:11:50;;;;;;;23.52;8.93;;;;;;;;;;4987006;28;20061;-57
2021/06/30 03:14:20;;;;;;;23.27;9.23;;;;;;;;;;4989505;28;20061;-58
2021/06/30 03:16:47;;;;;;;30.60;9.38;;;;;;;;;;4987415;28;20504;-58
2021/06/30 03:19:12;;;;;;;27.10;8.90;;;;;;;;;;4950171;28;1136245;-58
2021/06/30 03:21:40;;;;;;;36.58;9.48;;;;;;;;;;4989340;28;20468;-58
2021/06/30 03:24:11;;;;;;;32.58;9.40;;;;;;;;;;4990094;28;20061;-58
2021/06/30 03:26:39;;;;;;;27.92;9.82;;;;;;;;;;4990643;28;20034;-58
2021/06/30 03:29:07;;;;;;;27.13;9.80;;;;;;;;;;4974232;28;20037;-58
2021/06/30 03:31:32;;;;;;;26.27;9.20;;;;;;;;;;4991713;28;20088;-58
2021/06/30 03:34:00;;;;;;;38.28;10.48;;;;;;;;;;4956686;28;20033;-59
2021/06/30 03:36:26;;;;;;;38.10;10.88;;;;;;;;;;4977276;28;20123;-59
2021/06/30 03:38:53;;;;;;;31.02;9.55;;;;;;;;;;4968235;28;20025;-58
2021/06/30 03:41:21;;;;;;;32.38;9.48;;;;;;;;;;4990561;28;20030;-59
2021/06/30 03:43:49;;;;;;;22.73;9.45;;;;;;;;;;4992042;28;20152;-59
2021/06/30 03:46:19;;;;;;;29.02;10.05;;;;;;;;;;4990943;28;20034;-60
2021/06/30 03:48:48;;;;;;;20.85;8.70;;;;;;;;;;4989299;28;20199;-59
2021/06/30 03:51:16;;;;;;;31.40;9.45;;;;;;;;;;4954158;28;20133;-59
2021/06/30 03:53:41;;;;;;;23.92;9.25;;;;;;;;;;4988520;28;21385;-58
2021/06/30 03:56:07;;;;;;;26.73;9.68;;;;;;;;;;4963118;28;20034;-60
2021/06/30 03:58:32;;;;;;;27.60;10.60;;;;;;;;;;4989617;28;20121;-59
2021/06/30 04:01:00;;;;;;;25.48;9.43;;;;;;;;;;4967991;28;20128;-59
2021/06/30 04:03:26;;;;;;;22.73;8.98;;;;;;;;;;4982340;28;20069;-59
2021/06/30 04:05:53;;;;;;;21.23;9.57;;;;;;;;;;4985976;28;20109;-59
2021/06/30 04:08:19;;;;;;;29.58;9.55;;;;;;;;;;4975358;28;20037;-59
2021/06/30 04:10:44;;;;;;;21.23;8.77;;;;;;;;;;4958617;28;20147;-59
2021/06/30 04:13:11;;;;;;;26.30;9.98;;;;;;;;;;4988888;28;20045;-59
2021/06/30 04:15:39;;;;;;;26.70;9.07;;;;;;;;;;4977479;28;20042;-60
2021/06/30 04:18:07;;;;;;;29.90;10.20;;;;;;;;;;4988123;28;20087;-60
2021/06/30 04:20:38;;;;;;;27.35;9.85;;;;;;;;;;4991146;28;20026;-60
2021/06/30 04:23:06;;;;;;;21.25;9.43;;;;;;;;;;4971174;28;20166;-59
2021/06/30 04:25:31;;;;;;;24.98;10.18;;;;;;;;;;4973566;28;20614;-59
2021/06/30 04:28:00;;;;;;;23.00;9.80;;;;;;;;;;4988127;28;20033;-59
2021/06/30 04:30:28;;;;;;;29.83;11.40;;;;;;;;;;4972181;28;20180;-59
2021/06/30 04:32:53;;;;;;;35.75;9.27;;;;;;;;;;4982389;28;20636;-59
2021/06/30 04:35:18;;;;;;;21.50;10.20;;;;;;;;;;4991054;28;20033;-58
2021/06/30 04:37:46;;;;;;;30.20;10.27;;;;;;;;;;4987472;28;20046;-59
2021/06/30 04:40:14;;;;;;;35.83;9.85;;;;;;;;;;4989641;28;20113;-59
2021/06/30 04:42:42;;;;;;;29.17;10.13;;;;;;;;;;4976428;28;20099;-59
2021/06/30 04:45:12;;;;;;;32.80;10.57;;;;;;;;;;4988622;28;20041;-59
2021/06/30 04:47:37;;;;;;;22.95;9.90;;;;;;;;;;4978966;28;20041;-59
2021/06/30 04:50:05;;;;;;;39.00;10.77;;;;;;;;;;4962549;28;20029;-59
2021/06/30 04:52:31;;;;;;;42.20;11.10;;;;;;;;;;4956044;28;20077;-59
2021/06/30 04:54:57;;;;;;;44.00;10.35;;;;;;;;;;4974495;28;21043;-59
2021/06/30 04:57:27;;;;;;;27.65;9.68;;;;;;;;;;4989617;28;20049;-59
2021/06/30 04:59:58;;;;;;;25.45;8.65;;;;;;;;;;4986835;28;20035;-59
2021/06/30 05:02:26;;;;;;;27.80;9.25;;;;;;;;;;4988136;28;21887;-60
2021/06/30 05:04:54;;;;;;;29.63;10.50;;;;;;;;;;4986666;28;20045;-59
2021/06/30 05:07:22;;;;;;;25.33;9.73;;;;;;;;;;4988496;28;20036;-59
2021/06/30 05:09:50;;;;;;;29.98;9.30;;;;;;;;;;4973389;28;20052;-59
2021/06/30 05:12:16;;;;;;;30.30;8.25;;;;;;;;;;4973714;28;20026;-59
2021/06/30 05:14:44;;;;;;;25.50;9.20;;;;;;;;;;4989086;28;20037;-59
2021/06/30 05:17:15;;;;;;;37.38;10.18;;;;;;;;;;4987654;28;20127;-59
2021/06/30 05:19:45;;;;;;;29.95;9.10;;;;;;;;;;4987116;28;20061;-61
2021/06/30 05:22:14;;;;;;;28.02;9.32;;;;;;;;;;4986577;28;20087;-60
2021/06/30 05:24:40;;;;;;;26.02;9.55;;;;;;;;;;4973707;28;20030;-60
2021/06/30 05:27:10;;;;;;;22.33;9.13;;;;;;;;;;4985216;28;20042;-60
2021/06/30 05:29:36;;;;;;;23.15;9.35;;;;;;;;;;4987560;28;20026;-60
2021/06/30 05:32:01;;;;;;;30.17;9.02;;;;;;;;;;4956373;28;20396;-60
2021/06/30 05:34:27;;;;;;;21.67;8.32;;;;;;;;;;4965130;28;20026;-59
2021/06/30 05:36:55;;;;;;;23.75;8.02;;;;;;;;;;4985434;28;20036;-59
2021/06/30 05:39:28;;;;;;;28.55;8.63;;;;;;;;;;4984567;28;20152;-60
2021/06/30 05:41:53;;;;;;;20.20;7.93;;;;;;;;;;4990148;28;20047;-61
2021/06/30 05:44:21;;;;;;;25.95;8.20;;;;;;;;;;4985386;28;20456;-61
2021/06/30 05:46:47;;;;;;;19.05;8.10;;;;;;;;;;4985305;28;22002;-59
2021/06/30 05:49:17;;;;;;;26.77;7.78;;;;;;;;;;4985992;28;20038;-60
2021/06/30 05:51:42;;;;;;;22.20;7.68;;;;;;;;;;4961052;28;20034;-60
2021/06/30 05:54:09;;;;;;;21.52;6.43;;;;;;;;;;4962880;28;21254;-60
2021/06/30 05:56:35;;;;;;;25.60;7.20;;;;;;;;;;4983748;28;20027;-61
2021/06/30 05:59:00;;;;;;;23.40;7.10;;;;;;;;;;4987426;28;20033;-61
2021/06/30 06:01:29;;;;;;;18.58;6.85;;;;;;;;;;4989498;28;20025;-61
2021/06/30 06:03:59;;;;;;;15.35;6.38;;;;;;;;;;4987152;28;20022;-61
2021/06/30 06:06:27;;;;;;;16.40;6.07;;;;;;;;;;4986857;28;20118;-60
2021/06/30 06:08:52;;;;;;;24.45;6.80;;;;;;;;;;4987990;28;20386;-61
2021/06/30 06:11:18;;;;;;;24.02;6.65;;;;;;;;;;4961230;28;20124;-61
2021/06/30 06:13:46;;;;;;;23.23;6.63;;;;;;;;;;4988443;28;20492;-61
2021/06/30 06:16:15;;;;;;;18.95;5.55;;;;;;;;;;4979394;28;20121;-60
2021/06/30 06:18:42;;;;;;;19.48;6.43;;;;;;;;;;4986322;28;22017;-61
2021/06/30 06:21:08;;;;;;;21.48;6.53;;;;;;;;;;4985979;28;20087;-61
2021/06/30 06:23:36;;;;;;;27.73;6.53;;;;;;;;;;4968790;28;20038;-62
2021/06/30 06:26:04;;;;;;;26.60;6.60;;;;;;;;;;4955277;28;20381;-60
2021/06/30 06:28:35;;;;;;;23.55;7.68;;;;;;;;;;4978591;28;20033;-60
2021/06/30 06:31:05;;;;;;;15.05;5.80;;;;;;;;;;4978092;28;20033;-61
2021/06/30 06:33:32;;;;;;;10.48;6.22;;;;;;;;;;4963611;28;20096;-60
2021/06/30 06:36:00;;;;;;;18.02;7.32;;;;;;;;;;4963885;28;20038;-61
2021/06/30 06:38:26;;;;;;;18.90;6.50;;;;;;;;;;4985820;28;20085;-61
2021/06/30 06:40:53;;;;;;;23.38;6.05;;;;;;;;;;4969114;28;20117;-62
2021/06/30 06:43:22;;;;;;;28.98;7.93;;;;;;;;;;4986147;28;20827;-61
2021/06/30 06:45:47;;;;;;;15.38;7.18;;;;;;;;;;4986984;28;20785;-61
2021/06/30 06:48:13;;;;;;;23.20;7.13;;;;;;;;;;4984838;28;20679;-62
2021/06/30 06:50:39;;;;;;;21.63;6.40;;;;;;;;;;4986435;28;20103;-62
2021/06/30 06:53:09;;;;;;;16.27;7.07;;;;;;;;;;4970118;28;20920;-63
2021/06/30 06:55:35;;;;;;;25.05;6.65;;;;;;;;;;4963098;28;20037;-62
2021/06/30 06:58:00;;;;;;;24.70;6.88;;;;;;;;;;4953341;28;20040;-62
2021/06/30 07:00:28;;;;;;;13.45;5.93;;;;;;;;;;4953886;28;20018;-62
2021/06/30 07:02:56;;;;;;;19.05;6.40;;;;;;;;;;4985305;28;20038;-63
2021/06/30 07:05:24;;;;;;;15.10;6.43;;;;;;;;;;4980490;28;20026;-62
2021/06/30 07:07:57;;;;;;;16.92;6.35;;;;;;;;;;4981659;28;20785;-63
2021/06/30 07:10:23;;;;;;;16.08;6.25;;;;;;;;;;4988876;28;20034;-63
2021/06/30 07:12:49;;;;;;;23.30;6.32;;;;;;;;;;4967800;28;20298;-62
2021/06/30 07:15:20;;;;;;;12.88;5.60;;;;;;;;;;4991366;28;20065;-62
2021/06/30 07:17:49;;;;;;;18.70;5.50;;;;;;;;;;4982184;28;20960;-62
2021/06/30 07:20:19;;;;;;;18.40;5.10;;;;;;;;;;4951680;28;20893;-61
2021/06/30 07:22:45;;;;;;;13.07;5.55;;;;;;;;;;4985117;28;20600;-61
2021/06/30 07:25:19;;;;;;;15.18;5.45;;;;;;;;;;4954753;28;20189;-61
2021/06/30 07:27:46;;;;;;;16.85;5.65;;;;;;;;;;4961799;28;22032;-61
2021/06/30 07:30:15;;;;;;;15.13;4.93;;;;;;;;;;4983074;28;20038;-62
2021/06/30 07:32:40;;;;;;;10.88;4.53;;;;;;;;;;4979589;28;20120;-62
2021/06/30 07:35:09;;;;;;;10.32;3.97;;;;;;;;;;4987238;28;20611;-61
2021/06/30 07:37:34;;;;;;;13.25;4.72;;;;;;;;;;4970911;28;20048;-62
2021/06/30 07:40:00;;;;;;;8.90;4.32;;;;;;;;;;4953482;28;20050;-62
2021/06/30 07:42:30;;;;;;;7.85;3.88;;;;;;;;;;4986467;28;20038;-62
2021/06/30 07:44:58;;;;;;;15.35;4.32;;;;;;;;;;4980724;28;20027;-62
2021/06/30 07:47:28;;;;;;;13.40;4.28;;;;;;;;;;4977614;28;20156;-61
2021/06/30 07:49:54;;;;;;;11.77;4.40;;;;;;;;;;4986888;28;20048;-62
2021/06/30 07:52:20;;;;;;;9.88;4.30;;;;;;;;;;4979441;28;20038;-62
2021/06/30 07:54:50;;;;;;;10.00;4.53;;;;;;;;;;4985208;28;20038;-62
2021/06/30 07:57:15;;;;;;;18.08;4.80;;;;;;;;;;4946238;28;20096;-62
2021/06/30 07:59:41;;;;;;;9.68;4.00;;;;;;;;;;4974622;28;20634;-61
2021/06/30 08:02:08;;;;;;;14.38;4.75;;;;;;;;;;4967822;28;20034;-61
2021/06/30 08:04:36;;;;;;;16.20;4.43;;;;;;;;;;4957969;28;20029;-62
2021/06/30 08:07:02;;;;;;;10.50;4.75;;;;;;;;;;4973487;28;20060;-63
2021/06/30 08:09:31;;;;;;;16.27;4.63;;;;;;;;;;4963830;28;20057;-61
2021/06/30 08:11:56;;;;;;;14.40;4.30;;;;;;;;;;4969086;28;20038;-62
2021/06/30 08:14:27;;;;;;;10.55;4.78;;;;;;;;;;4975788;28;20025;-63
2021/06/30 08:16:52;;;;;;;11.40;4.40;;;;;;;;;;4985716;28;20156;-63
2021/06/30 08:19:20;;;;;;;10.60;4.30;;;;;;;;;;4968381;28;20464;-62
2021/06/30 08:21:48;;;;;;;14.13;4.85;;;;;;;;;;4952646;28;20034;-62
2021/06/30 08:24:18;;;;;;;12.25;4.75;;;;;;;;;;4981411;28;21222;-62
2021/06/30 08:26:46;;;;;;;16.55;5.03;;;;;;;;;;4985241;28;20129;-61
2021/06/30 08:29:11;;;;;;;16.73;5.53;;;;;;;;;;4973066;28;20052;-61
2021/06/30 08:31:39;;;;;;;10.13;4.80;;;;;;;;;;4950949;28;20029;-60
2021/06/30 08:34:07;;;;;;;18.23;5.20;;;;;;;;;;4973434;28;20041;-58
2021/06/30 08:36:32;;;;;;;16.55;4.93;;;;;;;;;;4949574;28;20033;-59
2021/06/30 08:39:01;;;;;;;17.00;5.28;;;;;;;;;;4970032;28;20815;-59
2021/06/30 08:41:31;;;;;;;9.13;5.03;;;;;;;;;;4981580;28;21263;-58
2021/06/30 08:44:02;;;;;;;11.15;5.05;;;;;;;;;;4970473;28;20057;-59
2021/06/30 08:46:30;;;;;;;13.70;5.53;;;;;;;;;;4980538;28;20025;-58
2021/06/30 08:48:56;;;;;;;12.55;4.72;;;;;;;;;;4982949;28;20072;-59
2021/06/30 08:51:25;;;;;;;15.27;4.53;;;;;;;;;;4986734;28;20070;-59
2021/06/30 08:53:54;;;;;;;10.48;4.40;;;;;;;;;;4980714;28;20034;-59
2021/06/30 08:56:20;;;;;;;9.48;4.40;;;;;;;;;;4977108;28;20037;-58
2021/06/30 08:58:51;;;;;;;11.27;4.57;;;;;;;;;;4968328;28;21440;-58
2021/06/30 09:01:19;;;;;;;14.45;4.53;;;;;;;;;;4984327;28;20491;-58
2021/06/30 09:03:50;;;;;;;13.68;4.88;;;;;;;;;;4971193;28;20022;-58
2021/06/30 09:06:17;;;;;;;10.90;4.43;;;;;;;;;;4967641;28;21933;-58
2021/06/30 09:08:44;;;;;;;9.95;4.78;;;;;;;;;;4983645;28;20059;-57
2021/06/30 09:11:13;;;;;;;13.73;4.95;;;;;;;;;;4987195;28;20037;-58
2021/06/30 09:13:41;;;;;;;14.05;5.32;;;;;;;;;;4985514;28;20037;-58
2021/06/30 09:16:06;;;;;;;13.88;5.20;;;;;;;;;;4965267;28;20030;-58
2021/06/30 09:18:37;;;;;;;11.65;5.82;;;;;;;;;;4982731;28;20397;-57
2021/06/30 09:21:14;;;;;;;15.55;5.80;;;;;;;;;;4968299;28;20117;-59
2021/06/30 09:24:01;;;;;;;9.48;5.30;;;;;;;;;;4984416;28;20709;-58
2021/06/30 09:26:32;;;;;;;15.50;5.68;;;;;;;;;;4987480;28;20041;-59
2021/06/30 09:29:06;;;;;;;14.48;5.72;;;;;;;;;;4982593;28;20499;-59
2021/06/30 09:31:35;;;;;;;14.35;6.18;;;;;;;;;;4981478;28;20115;-58
2021/06/30 09:34:05;;;;;;;12.27;5.65;;;;;;;;;;4983938;28;20026;-59
2021/06/30 09:36:44;;;;;;;20.15;5.20;;;;;;;;;;4952722;28;20034;-59
2021/06/30 09:39:13;;;;;;;17.20;5.50;;;;;;;;;;4978320;28;20021;-58
2021/06/30 09:41:44;;;;;;;8.50;4.90;;;;;;;;;;4987584;28;20034;-58
2021/06/30 09:44:19;;;;;;;9.35;4.40;;;;;;;;;;4989898;28;20029;-58
2021/06/30 09:46:45;;;;;;;17.38;5.32;;;;;;;;;;4964152;28;20099;-59
2021/06/30 09:49:11;;;;;;;13.80;4.90;;;;;;;;;;4985828;28;20081;-58
2021/06/30 09:51:42;;;;;;;9.35;4.70;;;;;;;;;;4984868;28;20048;-58
2021/06/30 09:54:10;;;;;;;11.70;4.75;;;;;;;;;;4952545;28;20112;-58
2021/06/30 09:56:40;;;;;;;14.35;4.72;;;;;;;;;;4971431;28;20780;-58
2021/06/30 09:59:11;;;;;;;14.75;5.22;;;;;;;;;;4986912;28;20175;-58
2021/06/30 10:01:40;;;;;;;14.43;5.43;;;;;;;;;;4988795;28;20045;-58
2021/06/30 10:04:06;;;;;;;11.27;5.15;;;;;;;;;;4946566;28;21591;-59
2021/06/30 10:06:35;;;;;;;19.38;5.38;;;;;;;;;;4949713;28;20038;-57
2021/06/30 10:09:05;;;;;;;25.60;5.95;;;;;;;;;;4985860;28;20041;-57
2021/06/30 10:11:33;;;;;;;18.38;5.28;;;;;;;;;;4963455;28;20041;-59
2021/06/30 10:13:59;;;;;;;24.55;5.78;;;;;;;;;;4971423;28;20460;-59
2021/06/30 10:16:28;;;;;;;18.83;5.60;;;;;;;;;;4984468;28;20681;-60
2021/06/30 10:18:55;;;;;;;22.67;6.18;;;;;;;;;;4972026;28;21008;-60
2021/06/30 10:21:23;;;;;;;19.90;5.53;;;;;;;;;;4985312;28;20095;-61
2021/06/30 10:23:49;;;;;;;16.98;5.90;;;;;;;;;;4963138;28;20495;-60
2021/06/30 10:26:15;;;;;;;12.38;5.38;;;;;;;;;;4964521;28;20141;-59
2021/06/30 10:28:43;;;;;;;18.45;6.32;;;;;;;;;;4980660;28;20064;-60
2021/06/30 10:31:11;;;;;;;13.13;5.90;;;;;;;;;;4986707;28;20079;-61
2021/06/30 10:33:41;;;;;;;17.42;6.45;;;;;;;;;;4986277;28;20148;-60
2021/06/30 10:36:08;;;;;;;26.33;6.30;;;;;;;;;;4963345;28;20038;-60
2021/06/30 10:38:51;;;;;;;15.98;6.85;;;;;;;;;;4974518;28;20053;-61
2021/06/30 10:41:35;;;;;;;13.75;6.10;;;;;;;;;;4986566;28;20029;-60
2021/06/30 10:44:18;;;;;;;12.93;5.43;;;;;;;;;;4985955;28;20107;-60
2021/06/30 10:46:43;;;;;;;14.85;5.57;;;;;;;;;;4988370;28;20070;-61
2021/06/30 10:49:16;;;;;;;12.32;5.40;;;;;;;;;;4965785;28;20181;-61
2021/06/30 10:51:53;;;;;;;22.77;5.47;;;;;;;;;;4991042;28;20149;-61
2021/06/30 10:54:32;;;;;;;19.27;4.90;;;;;;;;;;4987377;28;20124;-61
2021/06/30 10:57:16;;;;;;;9.40;3.88;;;;;;;;;;4989765;28;20137;-61
2021/06/30 11:00:03;;;;;;;6.85;2.90;;;;;;;;;;4991755;28;20054;-60
2021/06/30 11:02:37;;;;;;;13.02;3.70;;;;;;;;;;4991685;28;20037;-61
2021/06/30 11:05:14;;;;;;;10.35;4.25;;;;;;;;;;4971669;28;20029;-61
2021/06/30 11:07:44;;;;;;;10.93;5.25;;;;;;;;;;4987672;28;20041;-61
2021/06/30 11:10:16;;;;;;;11.85;4.88;;;;;;;;;;4954989;28;20034;-60
2021/06/30 11:12:51;;;;;;;14.38;5.03;;;;;;;;;;4987480;28;20030;-60
2021/06/30 11:15:51;;;;;;;13.82;5.22;;;;;;;;;;4989301;28;20056;-60
2021/06/30 11:18:41;;;;;;;12.30;5.65;;;;;;;;;;4955395;28;20070;-61
2021/06/30 11:21:12;;;;;;;14.60;5.13;;;;;;;;;;4989239;28;21898;-59
2021/06/30 11:23:43;;;;;;;15.65;4.75;;;;;;;;;;4990857;28;20038;-61
2021/06/30 11:26:31;;;;;;;13.82;4.53;;;;;;;;;;4987484;28;20061;-61
2021/06/30 11:28:57;;;;;;;8.45;3.97;;;;;;;;;;4991374;28;20115;-61
2021/06/30 11:31:26;;;;;;;13.07;4.70;;;;;;;;;;4989149;28;20029;-61
2021/06/30 11:34:18;;;;;;;9.88;4.80;;;;;;;;;;4987515;28;20030;-60
2021/06/30 11:36:43;;;;;;;11.18;4.53;;;;;;;;;;4965973;28;20180;-60
2021/06/30 11:39:20;;;;;;;10.95;4.43;;;;;;;;;;4987864;28;20619;-59
2021/06/30 11:41:52;;;;;;;8.05;4.60;;;;;;;;;;4987331;28;20037;-60
2021/06/30 11:44:20;;;;;;;11.00;4.25;;;;;;;;;;4988108;28;20022;-61
2021/06/30 11:46:51;;;;;;;8.98;3.67;;;;;;;;;;4990629;28;20393;-61
2021/06/30 11:49:22;;;;;;;8.68;4.10;;;;;;;;;;4990391;28;20166;-61
2021/06/30 11:51:57;;;;;;;8.77;4.07;;;;;;;;;;4989534;28;20725;-61
2021/06/30 11:54:25;;;;;;;11.93;4.47;;;;;;;;;;4988320;28;20038;-61
2021/06/30 11:56:54;;;;;;;16.08;4.53;;;;;;;;;;4987051;28;20629;-62
2021/06/30 11:59:22;;;;;;;10.60;5.57;;;;;;;;;;4988565;28;20115;-61
2021/06/30 12:01:51;;;;;;;12.80;5.60;;;;;;;;;;4989812;28;20041;-62
2021/06/30 12:04:21;;;;;;;14.65;4.88;;;;;;;;;;4967751;28;20440;-61
2021/06/30 12:06:53;;;;;;;11.07;4.70;;;;;;;;;;4986795;28;20069;-61
2021/06/30 12:09:25;;;;;;;22.65;5.60;;;;;;;;;;4970191;28;20038;-59
2021/06/30 12:12:11;;;;;;;15.48;4.43;;;;;;;;;;4988579;28;20030;-60
2021/06/30 12:14:38;;;;;;;11.88;4.85;;;;;;;;;;4984072;28;20493;-61
2021/06/30 12:17:04;;;;;;;10.48;4.80;;;;;;;;;;4973023;28;20626;-60
2021/06/30 12:19:32;;;;;;;7.97;4.55;;;;;;;;;;4988996;28;20057;-61
2021/06/30 12:22:00;;;;;;;16.63;5.20;;;;;;;;;;4945697;28;20041;-61
2021/06/30 12:24:29;;;;;;;13.27;5.25;;;;;;;;;;4990007;28;20030;-61
2021/06/30 12:27:01;;;;;;;20.58;5.63;;;;;;;;;;4984110;28;20244;-60
2021/06/30 12:29:29;;;;;;;11.60;4.68;;;;;;;;;;4969959;28;20026;-60
2021/06/30 12:31:55;;;;;;;17.88;5.25;;;;;;;;;;4985507;28;20033;-59
2021/06/30 12:34:22;;;;;;;16.10;4.80;;;;;;;;;;4973512;28;20030;-59
2021/06/30 12:36:55;;;;;;;8.57;4.40;;;;;;;;;;4987651;28;20017;-59
2021/06/30 12:39:27;;;;;;;13.27;5.07;;;;;;;;;;4975298;28;20153;-60
2021/06/30 12:41:53;;;;;;;7.68;4.88;;;;;;;;;;4971107;28;20045;-59
2021/06/30 12:44:18;;;;;;;8.68;4.45;;;;;;;;;;4976317;28;20073;-60
2021/06/30 12:46:45;;;;;;;9.00;4.20;;;;;;;;;;4987613;28;20109;-59
2021/06/30 12:49:17;;;;;;;12.52;4.43;;;;;;;;;;4986243;28;20029;-60
2021/06/30 12:51:44;;;;;;;11.35;4.47;;;;;;;;;;4986361;28;20072;-59
2021/06/30 12:54:14;;;;;;;12.32;4.88;;;;;;;;;;4972631;28;20030;-59
2021/06/30 12:56:42;;;;;;;9.93;4.85;;;;;;;;;;4974759;28;20041;-59
2021/06/30 12:59:14;;;;;;;13.15;5.30;;;;;;;;;;4988803;28;22029;-58
2021/06/30 13:01:40;;;;;;;11.70;4.60;;;;;;;;;;4965339;28;22041;-58
2021/06/30 13:04:07;;;;;;;9.77;4.60;;;;;;;;;;4987435;28;20034;-59
2021/06/30 13:06:35;;;;;;;15.68;4.53;;;;;;;;;;4986349;28;20026;-59
2021/06/30 13:09:05;;;;;;;8.48;4.93;;;;;;;;;;4953046;28;20014;-59
2021/06/30 13:11:52;;;;;;;15.85;4.93;;;;;;;;;;4964534;28;20038;-58
2021/06/30 13:14:22;;;;;;;12.32;5.32;;;;;;;;;;4972916;28;20033;-58
2021/06/30 13:17:01;;;;;;;16.38;5.78;;;;;;;;;;4986350;28;20824;-58
2021/06/30 13:19:35;;;;;;;10.80;5.78;;;;;;;;;;4986785;28;20152;-58
2021/06/30 13:22:02;;;;;;;14.23;5.70;;;;;;;;;;4970084;28;20626;-58
2021/06/30 13:24:42;;;;;;;19.25;6.70;;;;;;;;;;4986091;28;20022;-58
2021/06/30 13:35:36;;;;;;;7.78;4.85;;;;;;;;;;4988574;28;20042;-60
2021/06/30 13:38:06;;;;;;;14.63;5.10;;;;;;;;;;4981253;28;20047;-59
2021/06/30 13:40:36;;;;;;;10.77;5.40;;;;;;;;;;4970457;28;20312;-60
2021/06/30 13:43:05;;;;;;;9.55;4.90;;;;;;;;;;4986881;28;20030;-59
2021/06/30 13:45:39;;;;;;;9.30;4.70;;;;;;;;;;4987896;28;20550;-60
2021/06/30 13:48:07;;;;;;;11.98;4.50;;;;;;;;;;4979022;28;20030;-59
2021/06/30 13:50:38;;;;;;;15.40;4.88;;;;;;;;;;4987014;28;20893;-60
2021/06/30 13:53:06;;;;;;;12.25;4.88;;;;;;;;;;4970676;28;20524;-59
2021/06/30 13:55:34;;;;;;;11.05;4.68;;;;;;;;;;4984940;28;20092;-60
2021/06/30 13:58:02;;;;;;;8.38;4.35;;;;;;;;;;4988263;28;20030;-59
2021/06/30 14:00:30;;;;;;;16.60;4.88;;;;;;;;;;4986193;28;22017;-59
2021/06/30 14:02:58;;;;;;;17.13;5.53;;;;;;;;;;4963373;28;20030;-60
2021/06/30 14:05:26;;;;;;;21.77;5.82;;;;;;;;;;4962714;28;20037;-59
2021/06/30 14:07:52;;;;;;;12.15;4.78;;;;;;;;;;4983996;28;20164;-59
2021/06/30 14:10:20;;;;;;;9.57;4.60;;;;;;;;;;4974666;28;20556;-58
2021/06/30 14:12:48;;;;;;;7.20;3.90;;;;;;;;;;4970442;28;20030;-59
2021/06/30 14:15:16;;;;;;;12.20;4.00;;;;;;;;;;4986395;28;20026;-59
2021/06/30 14:17:44;;;;;;;11.55;4.75;;;;;;;;;;4962650;28;20029;-59
2021/06/30 14:20:11;;;;;;;13.43;4.18;;;;;;;;;;4940484;28;20057;-61
2021/06/30 14:22:40;;;;;;;21.05;5.13;;;;;;;;;;4972213;28;20037;-59
2021/06/30 14:25:09;;;;;;;15.05;4.90;;;;;;;;;;4991728;28;20033;-60
2021/06/30 14:27:35;;;;;;;15.30;4.50;;;;;;;;;;4989258;28;20079;-60
2021/06/30 14:30:02;;;;;;;13.85;4.68;;;;;;;;;;4984451;28;20999;-60
2021/06/30 14:32:28;;;;;;;19.25;4.50;;;;;;;;;;4990341;28;20037;-59
2021/06/30 14:34:59;;;;;;;10.52;4.70;;;;;;;;;;4950639;28;20038;-60
2021/06/30 14:37:27;;;;;;;7.60;4.00;;;;;;;;;;4974879;28;20084;-60
2021/06/30 14:39:53;;;;;;;8.45;4.32;;;;;;;;;;4988686;28;20117;-60
2021/06/30 14:42:22;;;;;;;11.23;3.90;;;;;;;;;;4989137;28;22240;-59
2021/06/30 14:44:54;;;;;;;17.00;3.90;;;;;;;;;;4991302;28;20037;-60
2021/06/30 14:47:23;;;;;;;8.68;3.47;;;;;;;;;;4990658;28;20025;-60